createdAt,value
2019-06-01T00:01:12.567Z,8.53
2019-06-01T00:03:42.180Z,8.23
2019-06-01T00:06:10.723Z,9.10
2019-06-01T00:08:40.145Z,7.80
2019-06-01T00:11:09.509Z,8.93
2019-06-01T00:13:39.405Z,8.08
2019-06-01T00:16:07.983Z,7.80
2019-06-01T00:18:36.495Z,8.98
2019-06-01T00:21:05.037Z,8.03
2019-06-01T00:23:33.537Z,9.28
2019-06-01T00:26:02.035Z,8.55
2019-06-01T00:28:30.540Z,9.53
2019-06-01T00:30:59.022Z,9.60
2019-06-01T00:33:27.525Z,8.90
2019-06-01T00:35:56.007Z,9.40
2019-06-01T00:38:24.511Z,9.05
2019-06-01T00:40:52.980Z,11.10
2019-06-01T00:43:21.490Z,10.85
2019-06-01T00:45:50.710Z,10.32
2019-06-01T00:48:19.359Z,8.70
2019-06-01T00:50:49.118Z,11.18
2019-06-01T00:53:17.629Z,8.20
2019-06-01T00:55:47.311Z,11.57
2019-06-01T00:58:15.810Z,9.63
2019-06-01T01:00:46.125Z,11.12
2019-06-01T01:03:14.544Z,10.68
2019-06-01T01:05:44.502Z,11.33
2019-06-01T01:08:13.121Z,12.40
2019-06-01T01:10:41.610Z,8.88
2019-06-01T01:13:11.719Z,8.88
2019-06-01T01:15:40.222Z,10.13
2019-06-01T01:18:09.052Z,10.88
2019-06-01T01:20:38.393Z,9.77
2019-06-01T01:23:08.118Z,8.50
2019-06-01T01:25:36.950Z,10.35
2019-06-01T01:28:06.132Z,9.63
2019-06-01T01:30:34.665Z,9.55
2019-06-01T01:33:03.197Z,9.78
2019-06-01T01:35:31.696Z,9.80
2019-06-01T01:38:00.174Z,8.98
2019-06-01T01:40:29.449Z,9.80
2019-06-01T01:42:58.954Z,12.20
2019-06-01T01:45:27.562Z,11.38
2019-06-01T01:47:57.167Z,10.87
2019-06-01T01:50:27.230Z,10.70
2019-06-01T01:52:57.087Z,14.45
2019-06-01T01:55:25.875Z,12.93
2019-06-01T01:57:55.417Z,13.70
2019-06-01T02:00:44.309Z,12.15
2019-06-01T02:03:12.855Z,14.93
2019-06-01T02:05:41.490Z,13.48
2019-06-01T02:08:10.043Z,13.53
2019-06-01T02:10:38.788Z,15.55
2019-06-01T02:13:07.710Z,12.60
2019-06-01T02:15:37.469Z,12.10
2019-06-01T02:18:06.587Z,12.10
2019-06-01T02:20:35.156Z,12.90
2019-06-01T02:23:04.702Z,11.60
2019-06-01T02:25:33.213Z,11.67
2019-06-01T02:28:01.836Z,10.90
2019-06-01T02:30:30.487Z,11.68
2019-06-01T02:33:00.243Z,11.63
2019-06-01T02:35:28.825Z,10.72
2019-06-01T02:37:58.588Z,11.28
2019-06-01T02:40:27.408Z,9.93
2019-06-01T02:42:57.200Z,10.78
2019-06-01T02:45:26.265Z,10.00
2019-06-01T02:47:55.378Z,11.83
2019-06-01T02:50:24.169Z,10.00
2019-06-01T02:52:52.676Z,10.32
2019-06-01T02:55:21.291Z,12.33
2019-06-01T02:57:49.771Z,10.68
2019-06-01T03:00:21.487Z,11.20
2019-06-01T03:02:50.104Z,10.50
2019-06-01T03:05:19.755Z,10.45
2019-06-01T03:07:49.973Z,11.05
2019-06-01T03:10:19.116Z,13.30
2019-06-01T03:12:47.596Z,10.50
2019-06-01T03:15:16.843Z,9.83
2019-06-01T03:17:49.143Z,9.48
2019-06-01T03:20:18.279Z,10.15
2019-06-01T03:22:49.799Z,9.17
2019-06-01T03:25:18.378Z,11.35
2019-06-01T03:27:49.627Z,9.53
2019-06-01T03:30:21.183Z,10.28
2019-06-01T03:32:49.676Z,11.38
2019-06-01T03:35:18.159Z,14.20
2019-06-01T03:37:46.725Z,11.20
2019-06-01T03:40:23.555Z,11.08
2019-06-01T03:42:45.563Z,10.50
2019-06-01T03:45:14.129Z,11.50
2019-06-01T03:47:43.112Z,13.88
2019-06-01T03:50:13.159Z,11.45
2019-06-01T03:52:41.726Z,10.78
2019-06-01T03:55:10.210Z,10.78
2019-06-01T03:57:38.714Z,12.63
2019-06-01T04:00:09.397Z,11.38
2019-06-01T04:02:38.013Z,10.23
2019-06-01T04:05:07.461Z,12.03
2019-06-01T04:07:38.777Z,11.10
2019-06-01T04:10:08.000Z,11.30
2019-06-01T04:12:36.544Z,10.78
2019-06-01T04:15:10.131Z,13.15
2019-06-01T04:17:36.635Z,10.32
2019-06-01T04:20:08.207Z,11.45
2019-06-01T04:22:36.748Z,9.95
2019-06-01T04:25:06.462Z,10.90
2019-06-01T04:27:34.966Z,9.65
2019-06-01T04:30:04.452Z,10.15
2019-06-01T04:32:48.522Z,10.08
2019-06-01T04:35:03.829Z,10.03
2019-06-01T04:37:33.331Z,10.38
2019-06-01T04:40:01.876Z,10.70
2019-06-01T04:42:30.384Z,11.73
2019-06-01T04:44:58.859Z,10.13
2019-06-01T04:47:27.362Z,11.12
2019-06-01T04:49:55.848Z,11.18
2019-06-01T04:52:24.425Z,10.45
2019-06-01T04:54:52.909Z,10.23
2019-06-01T04:57:21.406Z,9.80
2019-06-01T04:59:49.883Z,9.88
2019-06-01T05:02:18.673Z,11.88
2019-06-01T05:04:47.155Z,10.30
2019-06-01T05:07:15.676Z,9.90
2019-06-01T05:09:44.148Z,9.58
2019-06-01T05:12:13.612Z,10.60
2019-06-01T05:14:42.109Z,10.05
2019-06-01T05:17:12.915Z,9.55
2019-06-01T05:19:40.808Z,10.55
2019-06-01T05:22:10.413Z,10.93
2019-06-01T05:24:38.958Z,12.23
2019-06-01T05:27:07.436Z,12.25
2019-06-01T05:29:35.936Z,11.10
2019-06-01T05:32:04.579Z,9.65
2019-06-01T05:34:33.072Z,13.03
2019-06-01T05:37:01.579Z,11.55
2019-06-01T05:39:30.078Z,9.38
2019-06-01T05:41:58.550Z,10.05
2019-06-01T05:44:27.055Z,13.08
2019-06-01T05:46:55.557Z,12.98
2019-06-01T05:49:24.061Z,13.32
2019-06-01T05:51:52.535Z,10.45
2019-06-01T05:54:21.036Z,12.80
2019-06-01T05:56:49.513Z,12.13
2019-06-01T05:59:18.354Z,12.13
2019-06-01T06:01:46.871Z,10.55
2019-06-01T06:04:15.427Z,11.22
2019-06-01T06:06:43.934Z,12.78
2019-06-01T06:09:13.318Z,10.20
2019-06-01T06:11:41.808Z,12.15
2019-06-01T06:14:11.490Z,12.20
2019-06-01T06:16:39.972Z,10.20
2019-06-01T06:19:08.481Z,12.18
2019-06-01T06:21:36.962Z,12.75
2019-06-01T06:24:05.694Z,10.18
2019-06-01T06:26:34.182Z,12.10
2019-06-01T06:29:02.687Z,10.93
2019-06-01T06:31:31.156Z,12.37
2019-06-01T06:33:59.661Z,10.88
2019-06-01T06:36:28.200Z,10.90
2019-06-01T06:38:56.708Z,11.08
2019-06-01T06:41:25.178Z,10.65
2019-06-01T06:43:53.671Z,9.63
2019-06-01T06:46:22.791Z,11.03
2019-06-01T06:48:51.307Z,8.95
2019-06-01T06:51:19.871Z,10.53
2019-06-01T06:53:48.341Z,10.78
2019-06-01T06:56:17.837Z,9.88
2019-06-01T06:58:46.391Z,9.55
2019-06-01T07:01:14.904Z,12.23
2019-06-01T07:03:43.362Z,14.33
2019-06-01T07:06:11.881Z,9.45
2019-06-01T07:08:40.348Z,11.80
2019-06-01T07:11:11.772Z,8.68
2019-06-01T07:13:39.046Z,7.97
2019-06-01T07:16:07.528Z,8.50
2019-06-01T07:18:35.998Z,9.90
2019-06-01T07:21:04.561Z,6.15
2019-06-01T07:23:33.045Z,9.60
2019-06-01T07:26:01.554Z,9.33
2019-06-01T07:28:30.027Z,9.00
2019-06-01T07:30:58.521Z,7.25
2019-06-01T07:33:26.994Z,8.05
2019-06-01T07:35:55.487Z,6.15
2019-06-01T07:38:24.588Z,7.33
2019-06-01T07:40:53.242Z,11.68
2019-06-01T07:43:22.612Z,7.08
2019-06-01T07:45:51.075Z,9.35
2019-06-01T07:48:20.861Z,7.22
2019-06-01T07:50:49.469Z,7.85
2019-06-01T07:53:17.939Z,7.37
2019-06-01T07:55:46.504Z,6.62
2019-06-01T07:58:14.971Z,8.10
2019-06-01T08:00:43.479Z,7.65
2019-06-01T08:03:11.955Z,9.70
2019-06-01T08:05:40.465Z,8.65
2019-06-01T08:08:08.928Z,7.42
2019-06-01T08:10:37.433Z,8.28
2019-06-01T08:13:05.900Z,9.20
2019-06-01T08:15:34.460Z,7.17
2019-06-01T08:18:02.944Z,8.48
2019-06-01T08:20:32.253Z,8.85
2019-06-01T08:23:00.798Z,8.08
2019-06-01T08:25:30.625Z,6.17
2019-06-01T08:27:59.246Z,13.62
2019-06-01T08:30:28.655Z,8.58
2019-06-01T08:32:57.197Z,7.85
2019-06-01T08:35:26.916Z,8.78
2019-06-01T08:37:55.435Z,7.35
2019-06-01T08:40:25.174Z,6.97
2019-06-01T08:42:53.687Z,9.55
2019-06-01T08:45:23.417Z,8.23
2019-06-01T08:47:52.029Z,7.03
2019-06-01T08:50:20.508Z,6.12
2019-06-01T08:52:48.991Z,7.33
2019-06-01T08:55:17.722Z,6.62
2019-06-01T08:57:46.225Z,8.53
2019-06-01T09:00:14.943Z,5.50
2019-06-01T09:02:43.442Z,8.18
2019-06-01T09:05:24.014Z,5.75
2019-06-01T09:07:42.717Z,5.37
2019-06-01T09:10:12.030Z,7.03
2019-06-01T09:12:40.532Z,6.20
2019-06-01T09:15:11.054Z,6.12
2019-06-01T09:17:39.632Z,6.83
2019-06-01T09:20:08.435Z,6.37
2019-06-01T09:22:36.937Z,6.70
2019-06-01T09:25:06.054Z,5.83
2019-06-01T09:27:34.550Z,7.42
2019-06-01T09:30:03.299Z,4.80
2019-06-01T09:32:32.180Z,5.83
2019-06-01T09:35:00.742Z,8.63
2019-06-01T09:37:30.450Z,6.70
2019-06-01T09:39:59.009Z,4.72
2019-06-01T09:42:28.766Z,6.30
2019-06-01T09:44:57.249Z,5.67
2019-06-01T09:47:26.977Z,7.90
2019-06-01T09:49:55.600Z,5.67
2019-06-01T09:52:24.078Z,4.33
2019-06-01T09:54:52.590Z,6.12
2019-06-01T09:57:21.068Z,4.67
2019-06-01T09:59:49.564Z,4.67
2019-06-01T10:02:18.031Z,5.45
2019-06-01T10:04:46.529Z,4.67
2019-06-01T10:07:14.997Z,4.08
2019-06-01T10:09:43.491Z,9.00
2019-06-01T10:12:11.965Z,4.92
2019-06-01T10:14:40.465Z,4.90
2019-06-01T10:17:09.230Z,5.58
2019-06-01T10:19:38.860Z,3.77
2019-06-01T10:22:07.485Z,4.47
2019-06-01T10:24:37.155Z,5.40
2019-06-01T10:27:05.749Z,5.45
2019-06-01T10:29:34.642Z,3.65
2019-06-01T10:32:03.186Z,4.40
2019-06-01T10:34:31.676Z,4.05
2019-06-01T10:37:00.143Z,2.50
2019-06-01T10:39:28.714Z,3.08
2019-06-01T10:41:57.189Z,3.98
2019-06-01T10:44:25.680Z,2.98
2019-06-01T10:46:54.157Z,3.90
2019-06-01T10:49:22.659Z,3.47
2019-06-01T10:51:51.128Z,3.58
2019-06-01T10:54:19.623Z,3.60
2019-06-01T10:56:48.103Z,2.37
2019-06-01T10:59:16.609Z,4.87
2019-06-01T11:01:45.215Z,4.87
2019-06-01T11:04:13.707Z,4.35
2019-06-01T11:06:46.464Z,2.85
2019-06-01T11:09:12.476Z,3.10
2019-06-01T11:11:41.208Z,4.97
2019-06-01T11:14:09.729Z,3.00
2019-06-01T11:16:39.493Z,3.80
2019-06-01T11:19:08.157Z,2.62
2019-06-01T11:21:37.448Z,2.60
2019-06-01T11:24:06.239Z,2.67
2019-06-01T11:26:35.571Z,4.03
2019-06-01T11:29:04.180Z,2.72
2019-06-01T11:31:33.840Z,2.83
2019-06-01T11:34:02.342Z,1.85
2019-06-01T11:36:30.816Z,2.62
2019-06-01T11:38:59.311Z,2.72
2019-06-01T11:41:27.784Z,2.95
2019-06-01T11:43:56.285Z,2.17
2019-06-01T11:46:24.753Z,3.45
2019-06-01T11:48:53.268Z,2.37
2019-06-01T11:51:21.745Z,2.52
2019-06-01T11:53:50.238Z,3.50
2019-06-01T11:56:18.742Z,3.72
2019-06-01T11:58:47.214Z,2.65
2019-06-01T12:01:15.717Z,1.85
2019-06-01T12:03:44.211Z,2.65
2019-06-01T12:06:12.788Z,2.50
2019-06-01T12:08:42.280Z,2.22
2019-06-01T12:11:10.931Z,2.12
2019-06-01T12:13:40.189Z,3.77
2019-06-01T12:16:08.775Z,3.15
2019-06-01T12:18:38.500Z,25.15
2019-06-01T12:21:08.232Z,3.98
2019-06-01T12:23:37.326Z,3.37
2019-06-01T12:26:05.883Z,2.85
2019-06-01T12:28:34.363Z,3.40
2019-06-01T12:31:02.856Z,2.30
2019-06-01T12:33:31.325Z,2.20
2019-06-01T12:35:59.817Z,2.33
2019-06-01T12:38:28.525Z,2.27
2019-06-01T12:40:57.017Z,3.08
2019-06-01T12:43:25.486Z,1.87
2019-06-01T12:46:06.946Z,1.72
2019-06-01T12:48:24.183Z,1.72
2019-06-01T12:50:52.759Z,2.17
2019-06-01T12:53:21.225Z,2.30
2019-06-01T12:55:49.721Z,2.40
2019-06-01T12:58:18.207Z,1.77
2019-06-01T13:00:46.686Z,2.02
2019-06-01T13:03:15.151Z,1.50
2019-06-01T13:05:43.679Z,2.85
2019-06-01T13:08:12.111Z,1.67
2019-06-01T13:10:41.030Z,4.83
2019-06-01T13:13:09.556Z,2.65
2019-06-01T13:15:38.047Z,1.85
2019-06-01T13:18:06.521Z,1.82
2019-06-01T13:20:35.017Z,3.65
2019-06-01T13:23:03.487Z,1.50
2019-06-01T13:25:31.982Z,3.10
2019-06-01T13:28:00.460Z,1.70
2019-06-01T13:30:28.964Z,2.20
2019-06-01T13:32:57.424Z,1.65
2019-06-01T13:35:25.924Z,2.17
2019-06-01T13:38:10.945Z,2.75
2019-06-01T13:40:25.387Z,3.08
2019-06-01T13:42:53.871Z,4.80
2019-06-01T13:45:22.438Z,2.62
2019-06-01T13:47:51.885Z,2.08
2019-06-01T13:50:20.364Z,1.52
2019-06-01T13:52:49.959Z,1.70
2019-06-01T13:55:18.506Z,1.70
2019-06-01T13:57:48.246Z,1.60
2019-06-01T14:00:29.400Z,1.67
2019-06-01T14:02:50.816Z,2.15
2019-06-01T14:05:17.369Z,1.40
2019-06-01T14:07:45.885Z,2.15
2019-06-01T14:10:14.794Z,2.25
2019-06-01T14:12:43.284Z,1.60
2019-06-01T14:15:12.037Z,1.77
2019-06-01T14:17:40.529Z,2.10
2019-06-01T14:20:09.335Z,1.87
2019-06-01T14:22:37.834Z,1.90
2019-06-01T14:25:13.673Z,2.52
2019-06-01T14:27:37.186Z,2.20
2019-06-01T14:30:07.841Z,1.87
2019-06-01T14:32:36.341Z,1.65
2019-06-01T14:35:08.798Z,2.92
2019-06-01T14:37:37.299Z,1.60
2019-06-01T14:40:06.707Z,2.15
2019-06-01T14:42:35.390Z,4.65
2019-06-01T14:45:05.446Z,1.72
2019-06-01T14:47:33.941Z,3.08
2019-06-01T14:50:02.446Z,2.27
2019-06-01T14:52:30.949Z,2.20
2019-06-01T14:54:59.430Z,1.90
2019-06-01T14:57:27.927Z,1.77
2019-06-01T14:59:56.403Z,2.85
2019-06-01T15:02:24.894Z,3.20
2019-06-01T15:04:54.324Z,1.60
2019-06-01T15:07:22.793Z,1.77
2019-06-01T15:09:52.268Z,4.33
2019-06-01T15:12:20.833Z,1.95
2019-06-01T15:14:50.779Z,3.35
2019-06-01T15:17:19.404Z,2.00
2019-06-01T15:19:47.876Z,3.05
2019-06-01T15:22:16.375Z,2.50
2019-06-01T15:24:44.845Z,1.60
2019-06-01T15:27:13.343Z,1.87
2019-06-01T15:29:41.819Z,2.65
2019-06-01T15:32:10.310Z,2.05
2019-06-01T15:34:38.789Z,1.62
2019-06-01T15:37:07.278Z,1.87
2019-06-01T15:39:35.796Z,1.92
2019-06-01T15:42:04.362Z,2.37
2019-06-01T15:44:32.834Z,2.37
2019-06-01T15:47:02.083Z,2.08
2019-06-01T15:49:30.584Z,2.17
2019-06-01T15:51:59.903Z,3.22
2019-06-01T15:54:28.427Z,6.35
2019-06-01T15:56:56.928Z,1.60
2019-06-01T15:59:28.084Z,2.50
2019-06-01T16:01:57.288Z,1.65
2019-06-01T16:04:25.925Z,2.40
2019-06-01T16:06:54.997Z,1.60
2019-06-01T16:09:41.346Z,2.52
2019-06-01T16:11:53.679Z,3.05
2019-06-01T16:14:22.189Z,3.40
2019-06-01T16:16:50.664Z,1.95
2019-06-01T16:19:19.165Z,1.95
2019-06-01T16:21:47.648Z,2.65
2019-06-01T16:24:16.144Z,3.90
2019-06-01T16:26:44.621Z,2.10
2019-06-01T16:29:13.131Z,1.70
2019-06-01T16:31:41.611Z,2.12
2019-06-01T16:34:10.108Z,3.35
2019-06-01T16:36:38.573Z,1.87
2019-06-01T16:39:09.571Z,3.05
2019-06-01T16:41:38.123Z,4.90
2019-06-01T16:44:06.896Z,4.33
2019-06-01T16:46:35.357Z,1.95
2019-06-01T16:49:03.918Z,3.00
2019-06-01T16:51:51.142Z,2.58
2019-06-01T16:54:19.710Z,2.52
2019-06-01T16:56:48.262Z,2.42
2019-06-01T16:59:16.757Z,3.75
2019-06-01T17:01:45.238Z,2.87
2019-06-01T17:04:13.730Z,2.80
2019-06-01T17:06:42.950Z,4.20
2019-06-01T17:09:11.456Z,1.77
2019-06-01T17:11:40.005Z,1.72
2019-06-01T17:14:08.577Z,2.08
2019-06-01T17:16:37.188Z,4.35
2019-06-01T17:19:07.216Z,6.60
2019-06-01T17:21:35.674Z,2.05
2019-06-01T17:24:04.434Z,1.85
2019-06-01T17:26:32.899Z,1.98
2019-06-01T17:29:02.136Z,3.05
2019-06-01T17:31:30.657Z,1.90
2019-06-01T17:34:00.351Z,1.85
2019-06-01T17:36:28.877Z,2.75
2019-06-01T17:38:57.440Z,3.05
2019-06-01T17:41:25.988Z,2.08
2019-06-01T17:43:54.489Z,2.17
2019-06-01T17:46:23.017Z,2.40
2019-06-01T17:48:51.496Z,1.82
2019-06-01T17:51:20.064Z,3.27
2019-06-01T17:53:48.553Z,1.90
2019-06-01T17:56:17.126Z,1.50
2019-06-01T17:58:45.603Z,1.70
2019-06-01T18:01:14.181Z,1.90
2019-06-01T18:03:42.659Z,2.72
2019-06-01T18:06:12.785Z,1.75
2019-06-01T18:08:41.465Z,2.22
2019-06-01T18:11:10.134Z,2.45
2019-06-01T18:13:38.586Z,3.40
2019-06-01T18:16:08.270Z,2.25
2019-06-01T18:18:36.834Z,2.55
2019-06-01T18:21:06.294Z,1.80
2019-06-01T18:23:34.816Z,2.50
2019-06-01T18:26:04.965Z,2.40
2019-06-01T18:28:33.671Z,2.17
2019-06-01T18:31:02.669Z,2.30
2019-06-01T18:33:31.294Z,4.03
2019-06-01T18:35:59.784Z,2.52
2019-06-01T18:38:28.345Z,3.37
2019-06-01T18:41:09.498Z,4.05
2019-06-01T18:43:27.089Z,3.33
2019-06-01T18:45:55.585Z,2.40
2019-06-01T18:48:24.063Z,4.80
2019-06-01T18:50:52.555Z,3.02
2019-06-01T18:53:21.033Z,3.27
2019-06-01T18:55:49.562Z,4.20
2019-06-01T18:58:18.037Z,3.10
2019-06-01T19:00:46.573Z,3.40
2019-06-01T19:03:15.624Z,3.10
2019-06-01T19:05:44.199Z,3.33
2019-06-01T19:08:13.667Z,3.10
2019-06-01T19:10:42.407Z,4.45
2019-06-01T19:13:11.697Z,4.12
2019-06-01T19:15:40.410Z,4.03
2019-06-01T19:18:10.321Z,2.92
2019-06-01T19:20:38.976Z,4.35
2019-06-01T19:23:08.660Z,4.62
2019-06-01T19:25:37.342Z,4.70
2019-06-01T19:28:06.841Z,3.27
2019-06-01T19:30:42.960Z,4.08
2019-06-01T19:33:15.498Z,4.40
2019-06-01T19:35:42.362Z,4.20
2019-06-01T19:38:11.425Z,4.30
2019-06-01T19:40:41.213Z,5.12
2019-06-01T19:43:10.251Z,6.12
2019-06-01T19:45:39.898Z,5.22
2019-06-01T19:48:10.059Z,4.90
2019-06-01T19:50:38.931Z,4.62
2019-06-01T19:53:08.667Z,5.05
2019-06-01T19:55:37.233Z,4.12
2019-06-01T19:58:05.878Z,5.10
2019-06-01T20:00:34.416Z,4.97
2019-06-01T20:03:02.901Z,3.87
2019-06-01T20:05:31.376Z,3.83
2019-06-01T20:07:59.869Z,4.05
2019-06-01T20:10:28.365Z,5.20
2019-06-01T20:12:56.864Z,5.65
2019-06-01T20:15:25.346Z,4.00
2019-06-01T20:17:53.853Z,6.95
2019-06-01T20:20:23.164Z,3.50
2019-06-01T20:22:51.663Z,3.58
2019-06-01T20:25:21.817Z,3.37
2019-06-01T20:27:50.302Z,5.28
2019-06-01T20:30:19.895Z,3.67
2019-06-01T20:32:48.489Z,7.22
2019-06-01T20:35:18.048Z,3.70
2019-06-01T20:37:46.604Z,7.45
2019-06-01T20:40:16.286Z,3.80
2019-06-01T20:42:44.779Z,5.17
2019-06-01T20:45:14.536Z,4.05
2019-06-01T20:47:43.166Z,8.13
2019-06-01T20:50:12.884Z,4.35
2019-06-01T20:52:41.400Z,3.90
2019-06-01T20:55:09.925Z,4.05
2019-06-01T20:57:38.393Z,5.85
2019-06-01T21:00:10.484Z,3.87
2019-06-01T21:02:38.964Z,5.40
2019-06-01T21:05:08.314Z,5.10
2019-06-01T21:07:37.229Z,4.78
2019-06-01T21:10:07.967Z,4.33
2019-06-01T21:12:44.826Z,5.58
2019-06-01T21:15:07.743Z,4.00
2019-06-01T21:17:36.360Z,4.35
2019-06-01T21:20:07.974Z,5.67
2019-06-01T21:22:36.562Z,4.95
2019-06-01T21:25:07.420Z,4.22
2019-06-01T21:27:35.956Z,4.00
2019-06-01T21:30:07.416Z,4.20
2019-06-01T21:32:35.891Z,5.78
2019-06-01T21:35:05.067Z,4.42
2019-06-01T21:37:33.704Z,7.00
2019-06-01T21:40:02.201Z,4.45
2019-06-01T21:42:31.051Z,4.20
2019-06-01T21:44:59.678Z,4.37
2019-06-01T21:47:28.414Z,4.17
2019-06-01T21:49:57.051Z,4.10
2019-06-01T21:52:26.360Z,4.10
2019-06-01T21:54:55.000Z,5.20
2019-06-01T21:57:24.581Z,4.00
2019-06-01T21:59:53.167Z,6.17
2019-06-01T22:02:23.030Z,4.90
2019-06-01T22:04:51.763Z,4.83
2019-06-01T22:07:21.254Z,4.72
2019-06-01T22:09:50.171Z,5.53
2019-06-01T22:12:19.193Z,4.53
2019-06-01T22:14:47.771Z,4.72
2019-06-01T22:17:17.410Z,4.12
2019-06-01T22:19:45.951Z,4.33
2019-06-01T22:22:14.427Z,4.40
2019-06-01T22:24:42.938Z,4.60
2019-06-01T22:27:11.435Z,4.87
2019-06-01T22:29:39.925Z,4.47
2019-06-01T22:32:08.400Z,4.67
2019-06-01T22:34:36.986Z,4.37
2019-06-01T22:37:05.937Z,5.42
2019-06-01T22:39:34.447Z,5.35
2019-06-01T22:42:02.925Z,4.80
2019-06-01T22:44:32.443Z,5.50
2019-06-01T22:47:01.005Z,4.97
2019-06-01T22:49:29.477Z,6.20
2019-06-01T22:51:57.985Z,5.67
2019-06-01T22:54:27.218Z,5.33
2019-06-01T22:56:55.746Z,4.90
2019-06-01T22:59:24.538Z,4.90
2019-06-01T23:01:53.114Z,4.62
2019-06-01T23:04:22.656Z,4.80
2019-06-01T23:06:51.442Z,5.95
2019-06-01T23:09:21.029Z,6.53
2019-06-01T23:11:49.589Z,6.80
2019-06-01T23:14:18.053Z,5.25
2019-06-01T23:16:46.618Z,5.75
2019-06-01T23:19:15.089Z,5.87
2019-06-01T23:21:43.582Z,7.25
2019-06-01T23:24:12.060Z,6.40
2019-06-01T23:26:40.553Z,5.35
2019-06-01T23:29:09.025Z,5.33
2019-06-01T23:31:37.526Z,7.53
2019-06-01T23:34:06.069Z,6.87
2019-06-01T23:36:34.568Z,4.87
2019-06-01T23:39:03.107Z,6.60
2019-06-01T23:41:32.873Z,6.47
2019-06-01T23:44:11.868Z,7.75
2019-06-01T23:46:33.420Z,5.50
2019-06-01T23:49:01.979Z,7.78
2019-06-01T23:51:31.818Z,5.42
2019-06-01T23:54:00.326Z,6.05
2019-06-01T23:56:29.761Z,6.40
2019-06-01T23:58:58.267Z,5.85
